sensor_id;sensor_type;location;lat;lon;timestamp;P1;durP1;ratioP1;P2;durP2;ratioP2
14276;SDS011;7222;57.346;12.150;2023-05-10T00:00:50;4.20;;;3.67;;
14276;SDS011;7222;57.346;12.150;2023-05-10T00:03:18;4.53;;;3.70;;
14276;SDS011;7222;57.346;12.150;2023-05-10T00:05:45;3.90;;;3.60;;
14276;SDS011;7222;57.346;12.150;2023-05-10T00:08:12;5.57;;;4.00;;
14276;SDS011;7222;57.346;12.150;2023-05-10T00:10:39;4.93;;;2.77;;
14276;SDS011;7222;57.346;12.150;2023-05-10T00:13:07;4.20;;;3.70;;
14276;SDS011;7222;57.346;12.150;2023-05-10T00:15:34;4.00;;;3.60;;
14276;SDS011;7222;57.346;12.150;2023-05-10T00:18:01;4.17;;;3.77;;
14276;SDS011;7222;57.346;12.150;2023-05-10T00:20:28;3.77;;;3.40;;
14276;SDS011;7222;57.346;12.150;2023-05-10T00:22:56;4.67;;;3.30;;
14276;SDS011;7222;57.346;12.150;2023-05-10T00:25:23;5.87;;;3.60;;
14276;SDS011;7222;57.346;12.150;2023-05-10T00:27:50;3.97;;;3.57;;
14276;SDS011;7222;57.346;12.150;2023-05-10T00:30:19;5.73;;;3.90;;
14276;SDS011;7222;57.346;12.150;2023-05-10T00:32:46;4.60;;;3.70;;
14276;SDS011;7222;57.346;12.150;2023-05-10T00:35:14;4.40;;;3.77;;
14276;SDS011;7222;57.346;12.150;2023-05-10T00:37:42;4.50;;;3.70;;
14276;SDS011;7222;57.346;12.150;2023-05-10T00:40:10;4.27;;;3.40;;
14276;SDS011;7222;57.346;12.150;2023-05-10T00:42:37;4.50;;;3.53;;
14276;SDS011;7222;57.346;12.150;2023-05-10T00:45:05;4.47;;;3.40;;
14276;SDS011;7222;57.346;12.150;2023-05-10T00:47:35;6.00;;;3.80;;
14276;SDS011;7222;57.346;12.150;2023-05-10T00:50:02;4.17;;;3.77;;
14276;SDS011;7222;57.346;12.150;2023-05-10T00:52:30;4.70;;;3.47;;
14276;SDS011;7222;57.346;12.150;2023-05-10T00:54:57;4.10;;;3.70;;
14276;SDS011;7222;57.346;12.150;2023-05-10T00:57:24;3.50;;;3.20;;
14276;SDS011;7222;57.346;12.150;2023-05-10T00:59:51;4.63;;;3.40;;
14276;SDS011;7222;57.346;12.150;2023-05-10T01:02:18;4.33;;;3.70;;
14276;SDS011;7222;57.346;12.150;2023-05-10T01:04:47;6.10;;;4.00;;
14276;SDS011;7222;57.346;12.150;2023-05-10T01:07:15;3.50;;;3.20;;
14276;SDS011;7222;57.346;12.150;2023-05-10T01:09:42;4.77;;;4.03;;
14276;SDS011;7222;57.346;12.150;2023-05-10T01:12:10;3.67;;;3.30;;
14276;SDS011;7222;57.346;12.150;2023-05-10T01:14:37;4.03;;;3.47;;
14276;SDS011;7222;57.346;12.150;2023-05-10T01:17:04;4.53;;;3.90;;
14276;SDS011;7222;57.346;12.150;2023-05-10T01:19:32;5.47;;;4.00;;
14276;SDS011;7222;57.346;12.150;2023-05-10T01:22:05;3.93;;;3.40;;
14276;SDS011;7222;57.346;12.150;2023-05-10T01:24:54;4.50;;;3.30;;
14276;SDS011;7222;57.346;12.150;2023-05-10T01:27:40;4.30;;;3.67;;
14276;SDS011;7222;57.346;12.150;2023-05-10T01:33:31;5.70;;;3.70;;
14276;SDS011;7222;57.346;12.150;2023-05-10T01:36:02;4.43;;;3.60;;
14276;SDS011;7222;57.346;12.150;2023-05-10T01:38:33;3.97;;;3.53;;
14276;SDS011;7222;57.346;12.150;2023-05-10T01:41:09;5.50;;;3.50;;
14276;SDS011;7222;57.346;12.150;2023-05-10T01:43:43;5.40;;;4.33;;
14276;SDS011;7222;57.346;12.150;2023-05-10T01:46:20;4.67;;;3.70;;
14276;SDS011;7222;57.346;12.150;2023-05-10T01:48:57;4.63;;;3.60;;
14276;SDS011;7222;57.346;12.150;2023-05-10T01:51:26;5.50;;;3.80;;
14276;SDS011;7222;57.346;12.150;2023-05-10T01:53:58;4.77;;;3.50;;
14276;SDS011;7222;57.346;12.150;2023-05-10T01:56:29;3.80;;;3.50;;
14276;SDS011;7222;57.346;12.150;2023-05-10T01:58:58;4.63;;;4.10;;
14276;SDS011;7222;57.346;12.150;2023-05-10T02:01:27;4.10;;;3.73;;
14276;SDS011;7222;57.346;12.150;2023-05-10T02:03:56;5.73;;;3.77;;
14276;SDS011;7222;57.346;12.150;2023-05-10T02:06:24;5.50;;;3.80;;
14276;SDS011;7222;57.346;12.150;2023-05-10T02:08:53;5.27;;;3.37;;
14276;SDS011;7222;57.346;12.150;2023-05-10T02:11:20;4.90;;;3.50;;
14276;SDS011;7222;57.346;12.150;2023-05-10T02:13:49;4.03;;;3.60;;
14276;SDS011;7222;57.346;12.150;2023-05-10T02:16:17;4.23;;;3.83;;
14276;SDS011;7222;57.346;12.150;2023-05-10T02:18:50;6.13;;;4.00;;
14276;SDS011;7222;57.346;12.150;2023-05-10T02:21:20;4.47;;;3.93;;
14276;SDS011;7222;57.346;12.150;2023-05-10T02:23:48;7.70;;;3.30;;
14276;SDS011;7222;57.346;12.150;2023-05-10T02:26:18;4.13;;;3.57;;
14276;SDS011;7222;57.346;12.150;2023-05-10T02:28:46;4.00;;;3.63;;
14276;SDS011;7222;57.346;12.150;2023-05-10T02:31:15;4.33;;;3.30;;
14276;SDS011;7222;57.346;12.150;2023-05-10T02:33:43;4.43;;;3.40;;
14276;SDS011;7222;57.346;12.150;2023-05-10T02:36:12;5.00;;;3.70;;
14276;SDS011;7222;57.346;12.150;2023-05-10T02:38:41;4.23;;;3.67;;
14276;SDS011;7222;57.346;12.150;2023-05-10T02:41:09;4.90;;;3.60;;
14276;SDS011;7222;57.346;12.150;2023-05-10T02:43:37;5.80;;;4.10;;
14276;SDS011;7222;57.346;12.150;2023-05-10T02:46:05;5.17;;;3.60;;
14276;SDS011;7222;57.346;12.150;2023-05-10T02:48:32;5.73;;;3.87;;
14276;SDS011;7222;57.346;12.150;2023-05-10T02:51:00;4.63;;;3.93;;
14276;SDS011;7222;57.346;12.150;2023-05-10T02:53:33;4.93;;;3.37;;
14276;SDS011;7222;57.346;12.150;2023-05-10T02:56:07;4.27;;;3.87;;
14276;SDS011;7222;57.346;12.150;2023-05-10T02:58:38;4.37;;;3.60;;
14276;SDS011;7222;57.346;12.150;2023-05-10T03:01:06;4.57;;;3.57;;
14276;SDS011;7222;57.346;12.150;2023-05-10T03:03:33;5.73;;;4.00;;
14276;SDS011;7222;57.346;12.150;2023-05-10T03:06:01;4.70;;;4.00;;
14276;SDS011;7222;57.346;12.150;2023-05-10T03:08:28;4.67;;;3.40;;
14276;SDS011;7222;57.346;12.150;2023-05-10T03:11:00;4.20;;;3.80;;
14276;SDS011;7222;57.346;12.150;2023-05-10T03:13:44;4.27;;;3.90;;
14276;SDS011;7222;57.346;12.150;2023-05-10T03:16:22;4.20;;;3.37;;
14276;SDS011;7222;57.346;12.150;2023-05-10T03:18:54;4.67;;;3.80;;
14276;SDS011;7222;57.346;12.150;2023-05-10T03:21:28;4.90;;;3.73;;
14276;SDS011;7222;57.346;12.150;2023-05-10T03:23:58;6.20;;;3.70;;
14276;SDS011;7222;57.346;12.150;2023-05-10T03:26:31;5.70;;;3.90;;
14276;SDS011;7222;57.346;12.150;2023-05-10T03:28:59;6.47;;;4.33;;
14276;SDS011;7222;57.346;12.150;2023-05-10T03:31:27;3.93;;;3.33;;
14276;SDS011;7222;57.346;12.150;2023-05-10T03:33:54;3.93;;;3.60;;
14276;SDS011;7222;57.346;12.150;2023-05-10T03:36:21;5.47;;;3.77;;
14276;SDS011;7222;57.346;12.150;2023-05-10T03:38:48;6.67;;;4.03;;
14276;SDS011;7222;57.346;12.150;2023-05-10T03:41:15;5.27;;;3.50;;
14276;SDS011;7222;57.346;12.150;2023-05-10T03:43:44;3.97;;;3.23;;
14276;SDS011;7222;57.346;12.150;2023-05-10T03:46:11;7.33;;;4.13;;
14276;SDS011;7222;57.346;12.150;2023-05-10T03:48:38;6.13;;;3.77;;
14276;SDS011;7222;57.346;12.150;2023-05-10T03:51:05;4.17;;;3.40;;
14276;SDS011;7222;57.346;12.150;2023-05-10T03:53:32;4.43;;;3.90;;
14276;SDS011;7222;57.346;12.150;2023-05-10T03:55:59;5.47;;;4.13;;
14276;SDS011;7222;57.346;12.150;2023-05-10T03:58:26;5.83;;;3.70;;
14276;SDS011;7222;57.346;12.150;2023-05-10T04:00:54;5.23;;;3.83;;
14276;SDS011;7222;57.346;12.150;2023-05-10T04:03:21;6.27;;;3.90;;
14276;SDS011;7222;57.346;12.150;2023-05-10T04:05:48;3.30;;;3.00;;
14276;SDS011;7222;57.346;12.150;2023-05-10T04:08:15;5.70;;;4.23;;
14276;SDS011;7222;57.346;12.150;2023-05-10T04:10:42;4.80;;;3.60;;
14276;SDS011;7222;57.346;12.150;2023-05-10T04:13:09;5.77;;;3.90;;
14276;SDS011;7222;57.346;12.150;2023-05-10T04:15:36;5.53;;;3.63;;
14276;SDS011;7222;57.346;12.150;2023-05-10T04:18:04;4.60;;;3.70;;
14276;SDS011;7222;57.346;12.150;2023-05-10T04:20:32;3.90;;;3.43;;
14276;SDS011;7222;57.346;12.150;2023-05-10T04:22:59;3.80;;;3.40;;
14276;SDS011;7222;57.346;12.150;2023-05-10T04:25:26;6.57;;;3.90;;
14276;SDS011;7222;57.346;12.150;2023-05-10T04:27:53;5.97;;;4.10;;
14276;SDS011;7222;57.346;12.150;2023-05-10T04:30:20;4.37;;;3.97;;
14276;SDS011;7222;57.346;12.150;2023-05-10T04:32:48;4.47;;;3.90;;
14276;SDS011;7222;57.346;12.150;2023-05-10T04:35:16;6.40;;;3.70;;
14276;SDS011;7222;57.346;12.150;2023-05-10T04:37:43;4.13;;;3.60;;
14276;SDS011;7222;57.346;12.150;2023-05-10T04:40:10;4.97;;;3.70;;
14276;SDS011;7222;57.346;12.150;2023-05-10T04:42:39;5.40;;;3.77;;
14276;SDS011;7222;57.346;12.150;2023-05-10T04:45:06;4.73;;;3.83;;
14276;SDS011;7222;57.346;12.150;2023-05-10T04:47:34;5.57;;;3.60;;
14276;SDS011;7222;57.346;12.150;2023-05-10T04:50:02;4.73;;;4.20;;
14276;SDS011;7222;57.346;12.150;2023-05-10T04:52:30;6.67;;;3.57;;
14276;SDS011;7222;57.346;12.150;2023-05-10T04:54:57;5.97;;;3.83;;
14276;SDS011;7222;57.346;12.150;2023-05-10T04:57:24;5.93;;;3.73;;
14276;SDS011;7222;57.346;12.150;2023-05-10T04:59:51;4.40;;;3.93;;
14276;SDS011;7222;57.346;12.150;2023-05-10T05:02:18;4.67;;;4.03;;
14276;SDS011;7222;57.346;12.150;2023-05-10T05:04:45;4.83;;;3.73;;
14276;SDS011;7222;57.346;12.150;2023-05-10T05:07:12;5.03;;;3.53;;
14276;SDS011;7222;57.346;12.150;2023-05-10T05:09:41;5.13;;;3.73;;
14276;SDS011;7222;57.346;12.150;2023-05-10T05:12:08;4.57;;;4.13;;
14276;SDS011;7222;57.346;12.150;2023-05-10T05:14:38;4.90;;;3.87;;
14276;SDS011;7222;57.346;12.150;2023-05-10T05:17:06;5.23;;;3.90;;
14276;SDS011;7222;57.346;12.150;2023-05-10T05:19:33;7.37;;;4.00;;
14276;SDS011;7222;57.346;12.150;2023-05-10T05:22:00;4.47;;;4.07;;
14276;SDS011;7222;57.346;12.150;2023-05-10T05:24:27;6.13;;;3.70;;
14276;SDS011;7222;57.346;12.150;2023-05-10T05:26:56;4.93;;;4.13;;
14276;SDS011;7222;57.346;12.150;2023-05-10T05:29:22;5.07;;;4.10;;
14276;SDS011;7222;57.346;12.150;2023-05-10T05:31:50;5.67;;;3.97;;
14276;SDS011;7222;57.346;12.150;2023-05-10T05:34:16;6.20;;;3.93;;
14276;SDS011;7222;57.346;12.150;2023-05-10T05:36:45;4.60;;;4.20;;
14276;SDS011;7222;57.346;12.150;2023-05-10T05:39:12;4.67;;;3.53;;
14276;SDS011;7222;57.346;12.150;2023-05-10T05:41:39;4.73;;;4.30;;
14276;SDS011;7222;57.346;12.150;2023-05-10T05:44:07;5.17;;;4.03;;
14276;SDS011;7222;57.346;12.150;2023-05-10T05:46:35;4.27;;;3.87;;
14276;SDS011;7222;57.346;12.150;2023-05-10T05:49:02;4.17;;;3.60;;
14276;SDS011;7222;57.346;12.150;2023-05-10T05:51:29;4.53;;;4.13;;
14276;SDS011;7222;57.346;12.150;2023-05-10T05:53:56;5.00;;;4.10;;
14276;SDS011;7222;57.346;12.150;2023-05-10T05:56:24;4.80;;;4.00;;
14276;SDS011;7222;57.346;12.150;2023-05-10T05:58:50;4.93;;;3.87;;
14276;SDS011;7222;57.346;12.150;2023-05-10T06:01:19;5.13;;;4.53;;
14276;SDS011;7222;57.346;12.150;2023-05-10T06:03:46;4.00;;;3.67;;
14276;SDS011;7222;57.346;12.150;2023-05-10T06:06:13;4.67;;;4.03;;
14276;SDS011;7222;57.346;12.150;2023-05-10T06:08:40;4.73;;;4.00;;
14276;SDS011;7222;57.346;12.150;2023-05-10T06:11:06;6.27;;;4.70;;
14276;SDS011;7222;57.346;12.150;2023-05-10T06:13:33;4.67;;;4.10;;
14276;SDS011;7222;57.346;12.150;2023-05-10T06:16:00;6.13;;;4.13;;
14276;SDS011;7222;57.346;12.150;2023-05-10T06:18:29;4.43;;;4.03;;
14276;SDS011;7222;57.346;12.150;2023-05-10T06:20:56;5.20;;;3.73;;
14276;SDS011;7222;57.346;12.150;2023-05-10T06:23:23;6.53;;;4.70;;
14276;SDS011;7222;57.346;12.150;2023-05-10T06:25:51;7.57;;;3.90;;
14276;SDS011;7222;57.346;12.150;2023-05-10T06:28:18;4.30;;;3.90;;
14276;SDS011;7222;57.346;12.150;2023-05-10T06:30:46;5.13;;;4.37;;
14276;SDS011;7222;57.346;12.150;2023-05-10T06:33:13;5.60;;;4.47;;
14276;SDS011;7222;57.346;12.150;2023-05-10T06:35:42;6.27;;;4.60;;
14276;SDS011;7222;57.346;12.150;2023-05-10T06:38:09;5.10;;;4.30;;
14276;SDS011;7222;57.346;12.150;2023-05-10T06:40:36;4.90;;;4.43;;
14276;SDS011;7222;57.346;12.150;2023-05-10T06:43:03;4.60;;;4.20;;
14276;SDS011;7222;57.346;12.150;2023-05-10T06:45:30;5.27;;;4.33;;
14276;SDS011;7222;57.346;12.150;2023-05-10T06:47:57;4.23;;;3.93;;
14276;SDS011;7222;57.346;12.150;2023-05-10T06:50:24;4.43;;;4.03;;
14276;SDS011;7222;57.346;12.150;2023-05-10T06:52:53;4.23;;;3.83;;
14276;SDS011;7222;57.346;12.150;2023-05-10T06:55:20;5.50;;;3.93;;
14276;SDS011;7222;57.346;12.150;2023-05-10T06:57:48;6.07;;;4.30;;
14276;SDS011;7222;57.346;12.150;2023-05-10T07:00:16;4.43;;;3.70;;
14276;SDS011;7222;57.346;12.150;2023-05-10T07:02:44;6.03;;;4.10;;
14276;SDS011;7222;57.346;12.150;2023-05-10T07:05:11;4.70;;;4.30;;
14276;SDS011;7222;57.346;12.150;2023-05-10T07:07:40;6.60;;;4.50;;
14276;SDS011;7222;57.346;12.150;2023-05-10T07:10:09;4.47;;;3.73;;
14276;SDS011;7222;57.346;12.150;2023-05-10T07:12:36;5.07;;;4.17;;
14276;SDS011;7222;57.346;12.150;2023-05-10T07:15:03;5.77;;;3.77;;
14276;SDS011;7222;57.346;12.150;2023-05-10T07:17:31;5.77;;;3.77;;
14276;SDS011;7222;57.346;12.150;2023-05-10T07:19:59;4.83;;;3.93;;
14276;SDS011;7222;57.346;12.150;2023-05-10T07:22:28;6.10;;;4.30;;
14276;SDS011;7222;57.346;12.150;2023-05-10T07:24:55;4.80;;;4.40;;
14276;SDS011;7222;57.346;12.150;2023-05-10T07:27:24;6.63;;;3.83;;
14276;SDS011;7222;57.346;12.150;2023-05-10T07:29:52;4.27;;;3.87;;
14276;SDS011;7222;57.346;12.150;2023-05-10T07:32:19;6.33;;;3.80;;
14276;SDS011;7222;57.346;12.150;2023-05-10T07:34:46;5.03;;;3.93;;
14276;SDS011;7222;57.346;12.150;2023-05-10T07:37:13;4.93;;;3.77;;
14276;SDS011;7222;57.346;12.150;2023-05-10T07:39:40;4.80;;;4.37;;
14276;SDS011;7222;57.346;12.150;2023-05-10T07:42:07;5.07;;;4.33;;
14276;SDS011;7222;57.346;12.150;2023-05-10T07:44:36;6.33;;;4.10;;
14276;SDS011;7222;57.346;12.150;2023-05-10T07:47:04;4.77;;;4.20;;
14276;SDS011;7222;57.346;12.150;2023-05-10T07:49:31;4.67;;;4.27;;
14276;SDS011;7222;57.346;12.150;2023-05-10T07:51:58;4.30;;;3.90;;
14276;SDS011;7222;57.346;12.150;2023-05-10T07:54:25;5.40;;;4.20;;
14276;SDS011;7222;57.346;12.150;2023-05-10T07:56:52;6.17;;;4.80;;
14276;SDS011;7222;57.346;12.150;2023-05-10T07:59:20;6.10;;;4.13;;
14276;SDS011;7222;57.346;12.150;2023-05-10T08:01:49;5.70;;;4.20;;
14276;SDS011;7222;57.346;12.150;2023-05-10T08:04:16;5.17;;;4.77;;
14276;SDS011;7222;57.346;12.150;2023-05-10T08:06:43;5.20;;;4.63;;
14276;SDS011;7222;57.346;12.150;2023-05-10T08:09:10;4.70;;;4.23;;
14276;SDS011;7222;57.346;12.150;2023-05-10T08:11:38;6.80;;;4.80;;
14276;SDS011;7222;57.346;12.150;2023-05-10T08:14:05;4.20;;;3.80;;
14276;SDS011;7222;57.346;12.150;2023-05-10T08:16:32;4.23;;;3.73;;
14276;SDS011;7222;57.346;12.150;2023-05-10T08:19:01;6.37;;;4.43;;
14276;SDS011;7222;57.346;12.150;2023-05-10T08:21:28;6.20;;;4.47;;
14276;SDS011;7222;57.346;12.150;2023-05-10T08:23:56;4.60;;;4.20;;
14276;SDS011;7222;57.346;12.150;2023-05-10T08:26:23;5.17;;;4.27;;
14276;SDS011;7222;57.346;12.150;2023-05-10T08:28:51;5.03;;;3.97;;
14276;SDS011;7222;57.346;12.150;2023-05-10T08:31:18;4.93;;;4.17;;
14276;SDS011;7222;57.346;12.150;2023-05-10T08:33:45;4.63;;;4.23;;
14276;SDS011;7222;57.346;12.150;2023-05-10T08:36:13;4.67;;;4.27;;
14276;SDS011;7222;57.346;12.150;2023-05-10T08:38:44;4.70;;;4.30;;
14276;SDS011;7222;57.346;12.150;2023-05-10T08:41:11;6.83;;;4.30;;
14276;SDS011;7222;57.346;12.150;2023-05-10T08:43:39;5.00;;;4.50;;
14276;SDS011;7222;57.346;12.150;2023-05-10T08:46:11;4.80;;;4.30;;
14276;SDS011;7222;57.346;12.150;2023-05-10T08:48:41;5.00;;;4.50;;
14276;SDS011;7222;57.346;12.150;2023-05-10T08:51:11;4.60;;;4.20;;
14276;SDS011;7222;57.346;12.150;2023-05-10T08:53:44;5.50;;;4.40;;
14276;SDS011;7222;57.346;12.150;2023-05-10T08:56:11;5.23;;;4.13;;
14276;SDS011;7222;57.346;12.150;2023-05-10T08:58:38;4.87;;;4.17;;
14276;SDS011;7222;57.346;12.150;2023-05-10T09:01:05;6.90;;;4.60;;
14276;SDS011;7222;57.346;12.150;2023-05-10T09:03:33;5.53;;;4.47;;
14276;SDS011;7222;57.346;12.150;2023-05-10T09:06:01;5.17;;;3.80;;
14276;SDS011;7222;57.346;12.150;2023-05-10T09:08:29;8.40;;;4.00;;
14276;SDS011;7222;57.346;12.150;2023-05-10T09:10:57;4.60;;;4.20;;
14276;SDS011;7222;57.346;12.150;2023-05-10T09:13:26;5.03;;;4.53;;
14276;SDS011;7222;57.346;12.150;2023-05-10T09:15:53;6.47;;;3.90;;
14276;SDS011;7222;57.346;12.150;2023-05-10T09:18:21;5.63;;;5.03;;
14276;SDS011;7222;57.346;12.150;2023-05-10T09:20:48;5.03;;;4.43;;
14276;SDS011;7222;57.346;12.150;2023-05-10T09:23:15;4.37;;;4.07;;
14276;SDS011;7222;57.346;12.150;2023-05-10T09:25:43;6.83;;;4.43;;
14276;SDS011;7222;57.346;12.150;2023-05-10T09:28:10;4.73;;;4.30;;
14276;SDS011;7222;57.346;12.150;2023-05-10T09:30:38;4.80;;;4.13;;
14276;SDS011;7222;57.346;12.150;2023-05-10T09:33:07;5.43;;;4.60;;
14276;SDS011;7222;57.346;12.150;2023-05-10T09:35:34;6.47;;;4.77;;
14276;SDS011;7222;57.346;12.150;2023-05-10T09:38:02;4.83;;;4.20;;
14276;SDS011;7222;57.346;12.150;2023-05-10T09:40:31;5.13;;;4.03;;
14276;SDS011;7222;57.346;12.150;2023-05-10T09:43:00;6.93;;;4.43;;
14276;SDS011;7222;57.346;12.150;2023-05-10T09:45:28;6.23;;;4.63;;
14276;SDS011;7222;57.346;12.150;2023-05-10T09:47:57;9.27;;;4.20;;
14276;SDS011;7222;57.346;12.150;2023-05-10T09:50:25;6.27;;;4.63;;
14276;SDS011;7222;57.346;12.150;2023-05-10T09:52:53;9.50;;;4.80;;
14276;SDS011;7222;57.346;12.150;2023-05-10T09:55:23;7.80;;;4.50;;
14276;SDS011;7222;57.346;12.150;2023-05-10T09:57:58;4.67;;;4.30;;
14276;SDS011;7222;57.346;12.150;2023-05-10T10:00:27;5.63;;;4.80;;
14276;SDS011;7222;57.346;12.150;2023-05-10T10:03:00;7.23;;;4.50;;
14276;SDS011;7222;57.346;12.150;2023-05-10T10:05:28;8.37;;;4.50;;
14276;SDS011;7222;57.346;12.150;2023-05-10T10:07:55;5.33;;;4.60;;
14276;SDS011;7222;57.346;12.150;2023-05-10T10:10:24;6.27;;;4.60;;
14276;SDS011;7222;57.346;12.150;2023-05-10T10:12:51;8.73;;;4.50;;
14276;SDS011;7222;57.346;12.150;2023-05-10T10:15:20;4.80;;;4.10;;
14276;SDS011;7222;57.346;12.150;2023-05-10T10:17:48;5.70;;;4.47;;
14276;SDS011;7222;57.346;12.150;2023-05-10T10:20:15;5.20;;;4.17;;
14276;SDS011;7222;57.346;12.150;2023-05-10T10:22:43;5.90;;;4.57;;
14276;SDS011;7222;57.346;12.150;2023-05-10T10:25:11;5.03;;;4.53;;
14276;SDS011;7222;57.346;12.150;2023-05-10T10:27:42;5.80;;;4.47;;
14276;SDS011;7222;57.346;12.150;2023-05-10T10:30:17;4.70;;;4.20;;
14276;SDS011;7222;57.346;12.150;2023-05-10T10:33:00;4.50;;;3.80;;
14276;SDS011;7222;57.346;12.150;2023-05-10T10:35:37;4.67;;;4.17;;
14276;SDS011;7222;57.346;12.150;2023-05-10T10:38:05;4.67;;;4.23;;
14276;SDS011;7222;57.346;12.150;2023-05-10T10:40:34;6.83;;;4.57;;
14276;SDS011;7222;57.346;12.150;2023-05-10T10:48:40;3.70;;;3.40;;
14276;SDS011;7222;57.346;12.150;2023-05-10T10:51:13;5.57;;;4.10;;
14276;SDS011;7222;57.346;12.150;2023-05-10T10:53:40;4.83;;;4.00;;
14276;SDS011;7222;57.346;12.150;2023-05-10T10:56:08;5.20;;;4.27;;
14276;SDS011;7222;57.346;12.150;2023-05-10T10:58:36;4.70;;;4.20;;
14276;SDS011;7222;57.346;12.150;2023-05-10T11:01:11;4.90;;;4.33;;
14276;SDS011;7222;57.346;12.150;2023-05-10T11:03:41;4.93;;;3.73;;
14276;SDS011;7222;57.346;12.150;2023-05-10T11:06:41;6.07;;;4.13;;
14276;SDS011;7222;57.346;12.150;2023-05-10T11:09:10;4.53;;;4.00;;
14276;SDS011;7222;57.346;12.150;2023-05-10T11:11:48;4.60;;;3.80;;
14276;SDS011;7222;57.346;12.150;2023-05-10T11:14:19;4.63;;;3.83;;
14276;SDS011;7222;57.346;12.150;2023-05-10T11:16:48;4.53;;;3.53;;
14276;SDS011;7222;57.346;12.150;2023-05-10T11:19:16;4.30;;;3.90;;
14276;SDS011;7222;57.346;12.150;2023-05-10T11:21:44;5.13;;;4.00;;
14276;SDS011;7222;57.346;12.150;2023-05-10T11:24:13;3.67;;;3.37;;
14276;SDS011;7222;57.346;12.150;2023-05-10T11:26:41;3.67;;;3.37;;
14276;SDS011;7222;57.346;12.150;2023-05-10T11:29:08;4.10;;;3.77;;
14276;SDS011;7222;57.346;12.150;2023-05-10T11:31:41;3.87;;;3.40;;
14276;SDS011;7222;57.346;12.150;2023-05-10T11:34:11;4.03;;;3.63;;
14276;SDS011;7222;57.346;12.150;2023-05-10T11:36:50;5.53;;;3.70;;
14276;SDS011;7222;57.346;12.150;2023-05-10T11:39:18;4.93;;;3.43;;
14276;SDS011;7222;57.346;12.150;2023-05-10T11:41:49;3.73;;;3.43;;
14276;SDS011;7222;57.346;12.150;2023-05-10T11:44:16;3.63;;;3.30;;
14276;SDS011;7222;57.346;12.150;2023-05-10T11:46:43;4.33;;;3.37;;
14276;SDS011;7222;57.346;12.150;2023-05-10T11:49:11;3.97;;;3.33;;
14276;SDS011;7222;57.346;12.150;2023-05-10T11:51:38;4.47;;;3.13;;
14276;SDS011;7222;57.346;12.150;2023-05-10T11:54:07;3.67;;;3.37;;
14276;SDS011;7222;57.346;12.150;2023-05-10T11:56:36;4.70;;;3.53;;
14276;SDS011;7222;57.346;12.150;2023-05-10T11:59:03;3.97;;;3.00;;
14276;SDS011;7222;57.346;12.150;2023-05-10T12:01:30;3.97;;;3.07;;
14276;SDS011;7222;57.346;12.150;2023-05-10T12:03:58;3.50;;;3.20;;
14276;SDS011;7222;57.346;12.150;2023-05-10T12:06:28;3.03;;;2.83;;
14276;SDS011;7222;57.346;12.150;2023-05-10T12:08:56;3.53;;;3.00;;
14276;SDS011;7222;57.346;12.150;2023-05-10T12:11:24;3.57;;;2.97;;
14276;SDS011;7222;57.346;12.150;2023-05-10T12:13:52;4.07;;;2.92;;
14276;SDS011;7222;57.346;12.150;2023-05-10T12:16:20;4.68;;;2.90;;
14276;SDS011;7222;57.346;12.150;2023-05-10T12:18:49;6.33;;;3.00;;
14276;SDS011;7222;57.346;12.150;2023-05-10T12:21:17;3.78;;;2.72;;
14276;SDS011;7222;57.346;12.150;2023-05-10T12:23:50;3.20;;;2.75;;
14276;SDS011;7222;57.346;12.150;2023-05-10T12:26:21;3.27;;;2.50;;
14276;SDS011;7222;57.346;12.150;2023-05-10T12:28:49;2.97;;;2.70;;
14276;SDS011;7222;57.346;12.150;2023-05-10T12:31:16;4.80;;;3.10;;
14276;SDS011;7222;57.346;12.150;2023-05-10T12:33:44;3.37;;;3.07;;
14276;SDS011;7222;57.346;12.150;2023-05-10T12:36:12;3.60;;;3.17;;
14276;SDS011;7222;57.346;12.150;2023-05-10T12:38:41;3.23;;;3.03;;
14276;SDS011;7222;57.346;12.150;2023-05-10T12:41:11;3.20;;;2.80;;
14276;SDS011;7222;57.346;12.150;2023-05-10T12:43:38;3.20;;;2.93;;
14276;SDS011;7222;57.346;12.150;2023-05-10T12:46:06;4.40;;;2.60;;
14276;SDS011;7222;57.346;12.150;2023-05-10T12:48:34;5.33;;;2.70;;
14276;SDS011;7222;57.346;12.150;2023-05-10T12:51:02;3.17;;;2.97;;
14276;SDS011;7222;57.346;12.150;2023-05-10T12:53:29;4.07;;;3.27;;
14276;SDS011;7222;57.346;12.150;2023-05-10T12:55:57;3.33;;;3.00;;
14276;SDS011;7222;57.346;12.150;2023-05-10T12:58:26;4.93;;;3.10;;
14276;SDS011;7222;57.346;12.150;2023-05-10T13:00:53;4.30;;;3.07;;
14276;SDS011;7222;57.346;12.150;2023-05-10T13:03:21;5.97;;;3.53;;
14276;SDS011;7222;57.346;12.150;2023-05-10T13:05:48;4.30;;;3.50;;
14276;SDS011;7222;57.346;12.150;2023-05-10T13:08:15;4.03;;;3.50;;
14276;SDS011;7222;57.346;12.150;2023-05-10T13:10:42;5.63;;;3.60;;
14276;SDS011;7222;57.346;12.150;2023-05-10T13:13:10;5.13;;;3.43;;
14276;SDS011;7222;57.346;12.150;2023-05-10T13:15:38;4.00;;;3.60;;
14276;SDS011;7222;57.346;12.150;2023-05-10T13:18:05;3.93;;;3.50;;
14276;SDS011;7222;57.346;12.150;2023-05-10T13:20:32;3.97;;;3.33;;
14276;SDS011;7222;57.346;12.150;2023-05-10T13:22:58;4.37;;;3.20;;
14276;SDS011;7222;57.346;12.150;2023-05-10T13:25:26;4.63;;;3.43;;
14276;SDS011;7222;57.346;12.150;2023-05-10T13:27:53;4.63;;;3.40;;
14276;SDS011;7222;57.346;12.150;2023-05-10T13:30:21;4.10;;;3.43;;
14276;SDS011;7222;57.346;12.150;2023-05-10T13:32:50;4.37;;;3.03;;
14276;SDS011;7222;57.346;12.150;2023-05-10T13:35:17;3.60;;;3.30;;
14276;SDS011;7222;57.346;12.150;2023-05-10T13:37:44;3.80;;;2.80;;
14276;SDS011;7222;57.346;12.150;2023-05-10T13:40:11;5.10;;;2.90;;
14276;SDS011;7222;57.346;12.150;2023-05-10T13:42:38;3.73;;;3.30;;
14276;SDS011;7222;57.346;12.150;2023-05-10T13:45:05;3.57;;;3.10;;
14276;SDS011;7222;57.346;12.150;2023-05-10T13:47:33;3.37;;;3.07;;
14276;SDS011;7222;57.346;12.150;2023-05-10T13:50:01;4.53;;;3.03;;
14276;SDS011;7222;57.346;12.150;2023-05-10T13:52:28;4.70;;;3.17;;
14276;SDS011;7222;57.346;12.150;2023-05-10T13:54:55;3.47;;;3.20;;
14276;SDS011;7222;57.346;12.150;2023-05-10T13:57:23;3.97;;;3.10;;
14276;SDS011;7222;57.346;12.150;2023-05-10T13:59:50;3.60;;;3.30;;
14276;SDS011;7222;57.346;12.150;2023-05-10T14:02:17;5.73;;;3.33;;
14276;SDS011;7222;57.346;12.150;2023-05-10T14:04:44;3.80;;;3.50;;
14276;SDS011;7222;57.346;12.150;2023-05-10T14:07:13;5.00;;;3.30;;
14276;SDS011;7222;57.346;12.150;2023-05-10T14:09:40;3.77;;;3.33;;
14276;SDS011;7222;57.346;12.150;2023-05-10T14:12:07;4.33;;;3.17;;
14276;SDS011;7222;57.346;12.150;2023-05-10T14:14:34;3.70;;;3.40;;
14276;SDS011;7222;57.346;12.150;2023-05-10T14:17:00;6.00;;;3.97;;
14276;SDS011;7222;57.346;12.150;2023-05-10T14:19:27;4.00;;;3.70;;
14276;SDS011;7222;57.346;12.150;2023-05-10T14:21:57;4.23;;;3.83;;
14276;SDS011;7222;57.346;12.150;2023-05-10T14:24:26;4.10;;;3.43;;
14276;SDS011;7222;57.346;12.150;2023-05-10T14:26:53;3.87;;;3.10;;
14276;SDS011;7222;57.346;12.150;2023-05-10T14:29:20;5.60;;;3.60;;
14276;SDS011;7222;57.346;12.150;2023-05-10T14:31:47;4.47;;;3.00;;
14276;SDS011;7222;57.346;12.150;2023-05-10T14:34:14;4.90;;;3.47;;
14276;SDS011;7222;57.346;12.150;2023-05-10T14:36:41;5.43;;;3.40;;
14276;SDS011;7222;57.346;12.150;2023-05-10T14:39:08;4.47;;;3.40;;
14276;SDS011;7222;57.346;12.150;2023-05-10T14:41:39;5.47;;;3.60;;
14276;SDS011;7222;57.346;12.150;2023-05-10T14:44:08;5.17;;;3.53;;
14276;SDS011;7222;57.346;12.150;2023-05-10T14:46:35;6.27;;;3.60;;
14276;SDS011;7222;57.346;12.150;2023-05-10T14:49:01;6.30;;;3.63;;
14276;SDS011;7222;57.346;12.150;2023-05-10T14:51:29;3.50;;;3.20;;
14276;SDS011;7222;57.346;12.150;2023-05-10T14:53:56;3.60;;;2.93;;
14276;SDS011;7222;57.346;12.150;2023-05-10T14:56:24;3.77;;;3.47;;
14276;SDS011;7222;57.346;12.150;2023-05-10T14:58:54;3.37;;;3.17;;
14276;SDS011;7222;57.346;12.150;2023-05-10T15:01:21;4.57;;;3.57;;
14276;SDS011;7222;57.346;12.150;2023-05-10T15:03:48;4.30;;;3.30;;